Time,TemperatureF,DewpointF,PressureIn,WindDirection,WindDirectionDegrees,WindSpeedMPH,WindSpeedGustMPH,Humidity,HourlyPrecipIn,Conditions,Clouds,dailyrainin,SoftwareType,DateUTC
2013-03-19 00:03:00,68.0,63.0,29.97,SW,234,4.0,7.0,84,-99.99,,,-99.99,,2013-03-19 04:03:00,
2013-03-19 00:13:00,68.0,63.0,29.97,SW,234,4.0,7.0,84,-99.99,,,-99.99,,2013-03-19 04:13:00,
2013-03-19 00:23:00,68.0,63.0,29.97,SW,221,5.0,8.0,84,-99.99,,,-99.99,,2013-03-19 04:23:00,
2013-03-19 00:34:00,68.0,63.0,29.97,SW,221,5.0,8.0,84,-99.99,,,-99.99,,2013-03-19 04:34:00,
2013-03-19 00:43:00,68.0,63.0,29.96,South,185,5.0,8.0,85,-99.99,,,-99.99,,2013-03-19 04:43:00,
2013-03-19 00:53:00,67.0,63.0,29.96,South,187,5.0,9.0,85,-99.99,,,-99.99,,2013-03-19 04:53:00,
2013-03-19 01:02:00,67.0,63.0,29.95,South,180,4.0,6.0,85,-99.99,,,-99.99,,2013-03-19 05:02:00,
2013-03-19 01:12:00,67.0,63.0,29.95,South,180,4.0,6.0,85,-99.99,,,-99.99,,2013-03-19 05:12:00,
2013-03-19 01:22:00,67.0,63.0,29.95,South,180,4.0,6.0,85,-99.99,,,-99.99,,2013-03-19 05:22:00,
2013-03-19 01:32:00,67.0,63.0,29.95,SSW,194,3.0,4.0,86,-99.99,,,-99.99,,2013-03-19 05:32:00,
2013-03-19 01:43:00,67.0,62.0,29.95,SSW,202,2.0,4.0,86,-99.99,,,-99.99,,2013-03-19 05:43:00,
2013-03-19 01:52:00,66.0,62.0,29.95,SSW,207,2.0,3.0,87,-99.99,,,-99.99,,2013-03-19 05:52:00,
2013-03-19 02:03:00,66.0,62.0,29.95,SW,231,1.0,2.0,88,-99.99,,,-99.99,,2013-03-19 06:03:00,
2013-03-19 02:12:00,66.0,62.0,29.95,SW,231,1.0,2.0,88,-99.99,,,-99.99,,2013-03-19 06:12:00,
2013-03-19 02:22:00,64.0,61.0,29.95,SW,214,1.0,2.0,88,-99.99,,,-99.99,,2013-03-19 06:22:00,
2013-03-19 02:32:00,63.0,60.0,29.95,ESE,107,1.0,2.0,90,-99.99,,,-99.99,,2013-03-19 06:32:00,
2013-03-19 02:42:00,63.0,60.0,29.95,ESE,107,1.0,2.0,90,-99.99,,,-99.99,,2013-03-19 06:42:00,
2013-03-19 02:53:00,62.0,60.0,29.93,SSE,152,2.0,4.0,91,-99.99,,,-99.99,,2013-03-19 06:53:00,
2013-03-19 03:03:00,62.0,60.0,29.93,SSE,152,2.0,4.0,91,-99.99,,,-99.99,,2013-03-19 07:03:00,
2013-03-19 03:12:00,62.0,59.0,29.93,SE,135,1.0,3.0,91,-99.99,,,-99.99,,2013-03-19 07:12:00,
2013-03-19 03:22:00,62.0,59.0,29.93,SE,135,1.0,3.0,91,-99.99,,,-99.99,,2013-03-19 07:22:00,
2013-03-19 03:32:00,62.0,59.0,29.93,SE,135,1.0,3.0,91,-99.99,,,-99.99,,2013-03-19 07:32:00,
2013-03-19 03:42:00,62.0,59.0,29.94,SSW,201,3.0,7.0,92,-99.99,,,-99.99,,2013-03-19 07:42:00,
2013-03-19 03:53:00,62.0,60.0,29.96,NNW,340,7.0,9.0,93,-99.99,,,-99.99,,2013-03-19 07:53:00,
2013-03-19 04:03:00,63.0,61.0,29.97,NNW,336,6.0,8.0,93,-99.99,,,-99.99,,2013-03-19 08:03:00,
2013-03-19 04:13:00,63.0,61.0,29.97,NNW,336,6.0,8.0,93,-99.99,,,-99.99,,2013-03-19 08:13:00,
2013-03-19 04:22:00,63.0,61.0,29.96,NNW,344,5.0,7.0,93,-99.99,,,-99.99,,2013-03-19 08:22:00,
2013-03-19 04:32:00,63.0,61.0,29.96,NNW,344,5.0,7.0,93,-99.99,,,-99.99,,2013-03-19 08:32:00,
2013-03-19 04:42:00,63.0,61.0,29.96,SE,136,5.0,6.0,93,-99.99,,,-99.99,,2013-03-19 08:42:00,
2013-03-19 04:53:00,63.0,61.0,29.96,NNE,13,3.0,4.0,93,-99.99,,,-99.99,,2013-03-19 08:53:00,
2013-03-19 05:03:00,63.0,61.0,29.96,NE,49,2.0,4.0,93,-99.99,,,-99.99,,2013-03-19 09:03:00,
2013-03-19 05:12:00,63.0,61.0,29.96,NE,49,2.0,4.0,93,-99.99,,,-99.99,,2013-03-19 09:12:00,
2013-03-19 05:23:00,62.0,60.0,29.96,East,84,2.0,3.0,93,-99.99,,,-99.99,,2013-03-19 09:23:00,
2013-03-19 05:33:00,62.0,60.0,29.96,East,84,2.0,3.0,93,-99.99,,,-99.99,,2013-03-19 09:33:00,
2013-03-19 05:43:00,62.0,60.0,29.96,East,84,2.0,3.0,93,-99.99,,,-99.99,,2013-03-19 09:43:00,
2013-03-19 06:04:00,60.0,58.0,29.96,East,92,1.0,2.0,93,-99.99,,,-99.99,,2013-03-19 10:04:00,
2013-03-19 06:13:00,60.0,58.0,29.96,East,92,1.0,2.0,93,-99.99,,,-99.99,,2013-03-19 10:13:00,
2013-03-19 06:23:00,59.0,57.0,29.96,SE,138,3.0,4.0,93,-99.99,,,-99.99,,2013-03-19 10:23:00,
2013-03-19 06:33:00,59.0,57.0,29.96,SE,138,3.0,4.0,93,-99.99,,,-99.99,,2013-03-19 10:33:00,
2013-03-19 06:42:00,59.0,57.0,29.95,SSE,148,4.0,7.0,93,-99.99,,,-99.99,,2013-03-19 10:42:00,
2013-03-19 06:53:00,60.0,58.0,29.96,SE,145,4.0,5.0,93,-99.99,,,-99.99,,2013-03-19 10:53:00,
2013-03-19 07:03:00,60.0,58.0,29.96,SE,145,4.0,5.0,93,-99.99,,,-99.99,,2013-03-19 11:03:00,
2013-03-19 07:12:00,60.0,59.0,29.97,West,261,2.0,3.0,93,-99.99,,,-99.99,,2013-03-19 11:12:00,
2013-03-19 07:22:00,60.0,59.0,29.97,West,261,2.0,3.0,93,-99.99,,,-99.99,,2013-03-19 11:22:00,
2013-03-19 07:33:00,60.0,59.0,29.97,West,261,2.0,3.0,93,-99.99,,,-99.99,,2013-03-19 11:33:00,
2013-03-19 07:43:00,60.0,59.0,29.98,ESE,112,1.0,3.0,93,-99.99,,,-99.99,,2013-03-19 11:43:00,
2013-03-19 07:53:00,60.0,58.0,29.99,SE,145,2.0,3.0,93,-99.99,,,-99.99,,2013-03-19 11:53:00,
2013-03-19 08:00:00,60.0,59.0,30.01,NW,312,2.0,5.0,94,-99.99,,,-99.99,,2013-03-19 12:00:00,
2013-03-19 08:02:00,60.0,58.0,29.99,SE,145,2.0,3.0,93,-99.99,,,-99.99,,2013-03-19 12:02:00,
2013-03-19 08:12:00,60.0,58.0,30.00,NW,320,5.0,7.0,94,-99.99,,,-99.99,,2013-03-19 12:12:00,
2013-03-19 08:23:00,60.0,58.0,30.00,NW,320,5.0,7.0,94,-99.99,,,-99.99,,2013-03-19 12:23:00,
2013-03-19 08:33:00,60.0,58.0,30.00,NW,320,5.0,7.0,94,-99.99,,,-99.99,,2013-03-19 12:33:00,
2013-03-19 08:43:00,60.0,59.0,30.01,NW,312,2.0,5.0,94,-99.99,,,-99.99,,2013-03-19 12:43:00,
2013-03-19 08:52:00,60.0,59.0,30.01,NW,312,2.0,5.0,94,-99.99,,,-99.99,,2013-03-19 12:52:00,
2013-03-19 10:42:00,66.0,64.0,30.03,NE,40,6.0,8.0,92,-99.99,,,-99.99,,2013-03-19 14:42:00,
2013-03-19 10:53:00,66.0,64.0,30.03,NE,40,6.0,8.0,92,-99.99,,,-99.99,,2013-03-19 14:53:00,
2013-03-19 11:03:00,70.0,63.0,30.03,ENE,64,8.0,10.0,76,-99.99,,,-99.99,,2013-03-19 15:03:00,
2013-03-19 11:12:00,70.0,63.0,30.03,ENE,64,8.0,10.0,76,-99.99,,,-99.99,,2013-03-19 15:12:00,
2013-03-19 11:23:00,72.0,62.0,30.02,NE,44,6.0,11.0,72,-99.99,,,-99.99,,2013-03-19 15:23:00,
2013-03-19 11:34:00,72.0,62.0,30.02,NE,44,6.0,11.0,72,-99.99,,,-99.99,,2013-03-19 15:34:00,
2013-03-19 11:44:00,74.0,62.0,30.04,SE,128,8.0,14.0,65,-99.99,,,-99.99,,2013-03-19 15:44:00,
2013-03-19 11:54:00,74.0,62.0,30.04,SE,128,8.0,14.0,65,-99.99,,,-99.99,,2013-03-19 15:54:00,
2013-03-19 12:04:00,75.0,62.0,30.02,East,86,5.0,9.0,62,-99.99,,,-99.99,,2013-03-19 16:04:00,
2013-03-19 12:13:00,75.0,62.0,30.02,East,86,5.0,9.0,62,-99.99,,,-99.99,,2013-03-19 16:13:00,
2013-03-19 12:24:00,76.0,62.0,30.03,SE,127,6.0,10.0,60,-99.99,,,-99.99,,2013-03-19 16:24:00,
2013-03-19 12:34:00,76.0,61.0,30.03,SE,131,5.0,10.0,60,-99.99,,,-99.99,,2013-03-19 16:34:00,
2013-03-19 12:44:00,76.0,61.0,30.03,SE,131,5.0,10.0,60,-99.99,,,-99.99,,2013-03-19 16:44:00,
2013-03-19 12:55:00,77.0,60.0,30.04,SSE,156,3.0,7.0,55,-99.99,,,-99.99,,2013-03-19 16:55:00,
2013-03-19 13:03:00,77.0,60.0,30.04,SSE,156,3.0,7.0,55,-99.99,,,-99.99,,2013-03-19 17:03:00,
2013-03-19 13:14:00,77.0,59.0,30.03,SW,226,4.0,7.0,54,-99.99,,,-99.99,,2013-03-19 17:14:00,
2013-03-19 13:24:00,77.0,59.0,30.03,SW,226,4.0,7.0,54,-99.99,,,-99.99,,2013-03-19 17:24:00,
2013-03-19 13:34:00,77.0,59.0,30.03,SW,226,4.0,7.0,54,-99.99,,,-99.99,,2013-03-19 17:34:00,
2013-03-19 13:44:00,78.0,60.0,30.03,East,100,4.0,8.0,52,-99.99,,,-99.99,,2013-03-19 17:44:00,
2013-03-19 13:53:00,78.0,61.0,30.02,South,170,4.0,7.0,54,-99.99,,,-99.99,,2013-03-19 17:53:00,
2013-03-19 14:03:00,79.0,61.0,30.01,WSW,247,5.0,9.0,53,-99.99,,,-99.99,,2013-03-19 18:03:00,
2013-03-19 14:14:00,79.0,61.0,30.01,WSW,247,5.0,9.0,53,-99.99,,,-99.99,,2013-03-19 18:14:00,
2013-03-19 14:23:00,81.0,61.0,30.00,WNW,302,6.0,10.0,51,-99.99,,,-99.99,,2013-03-19 18:23:00,
2013-03-19 14:34:00,81.0,61.0,30.00,South,186,7.0,11.0,50,-99.99,,,-99.99,,2013-03-19 18:34:00,
2013-03-19 14:43:00,81.0,61.0,30.00,South,186,7.0,11.0,50,-99.99,,,-99.99,,2013-03-19 18:43:00,
2013-03-19 14:54:00,81.0,61.0,29.99,South,173,10.0,13.0,50,-99.99,,,-99.99,,2013-03-19 18:54:00,
2013-03-19 15:03:00,81.0,61.0,29.98,SSE,165,7.0,10.0,49,-99.99,,,-99.99,,2013-03-19 19:03:00,
2013-03-19 15:12:00,81.0,61.0,29.98,SSE,165,7.0,10.0,49,-99.99,,,-99.99,,2013-03-19 19:12:00,
2013-03-19 15:22:00,81.0,60.0,29.97,SSE,153,4.0,6.0,49,-99.99,,,-99.99,,2013-03-19 19:22:00,
2013-03-19 15:33:00,82.0,60.0,29.97,SSW,197,4.0,6.0,47,-99.99,,,-99.99,,2013-03-19 19:33:00,
2013-03-19 15:43:00,82.0,60.0,29.97,SSW,197,4.0,6.0,47,-99.99,,,-99.99,,2013-03-19 19:43:00,
2013-03-19 15:53:00,84.0,60.0,29.95,South,187,6.0,10.0,44,-99.99,,,-99.99,,2013-03-19 19:53:00,
2013-03-19 16:03:00,84.0,59.0,29.95,SW,226,7.0,10.0,42,-99.99,,,-99.99,,2013-03-19 20:03:00,
2013-03-19 16:12:00,83.0,58.0,29.95,South,180,5.0,10.0,41,-99.99,,,-99.99,,2013-03-19 20:12:00,
2013-03-19 16:23:00,83.0,58.0,29.95,South,180,5.0,10.0,41,-99.99,,,-99.99,,2013-03-19 20:23:00,
2013-03-19 16:33:00,83.0,58.0,29.95,South,180,5.0,10.0,41,-99.99,,,-99.99,,2013-03-19 20:33:00,
2013-03-19 16:43:00,84.0,57.0,29.94,SSE,167,5.0,9.0,41,-99.99,,,-99.99,,2013-03-19 20:43:00,
2013-03-19 16:53:00,84.0,57.0,29.94,SSE,167,5.0,9.0,41,-99.99,,,-99.99,,2013-03-19 20:53:00,
2013-03-19 17:02:00,83.0,57.0,29.93,South,179,6.0,8.0,41,-99.99,,,-99.99,,2013-03-19 21:02:00,
2013-03-19 17:12:00,83.0,57.0,29.93,South,179,6.0,8.0,41,-99.99,,,-99.99,,2013-03-19 21:12:00,
2013-03-19 17:23:00,84.0,57.0,29.94,South,177,5.0,10.0,40,-99.99,,,-99.99,,2013-03-19 21:23:00,
2013-03-19 17:34:00,84.0,57.0,29.94,South,190,5.0,8.0,39,-99.99,,,-99.99,,2013-03-19 21:34:00,
2013-03-19 17:43:00,84.0,57.0,29.94,South,190,5.0,8.0,39,-99.99,,,-99.99,,2013-03-19 21:43:00,
2013-03-19 17:53:00,84.0,57.0,29.94,SW,227,4.0,7.0,39,-99.99,,,-99.99,,2013-03-19 21:53:00,
2013-03-19 18:03:00,85.0,57.0,29.94,SW,214,5.0,8.0,39,-99.99,,,-99.99,,2013-03-19 22:03:00,
2013-03-19 18:13:00,85.0,57.0,29.94,SW,214,5.0,8.0,39,-99.99,,,-99.99,,2013-03-19 22:13:00,
2013-03-19 18:24:00,84.0,57.0,29.93,South,177,6.0,7.0,40,-99.99,,,-99.99,,2013-03-19 22:24:00,
2013-03-19 18:33:00,84.0,57.0,29.93,South,172,5.0,7.0,40,-99.99,,,-99.99,,2013-03-19 22:33:00,
2013-03-19 18:43:00,84.0,57.0,29.93,South,172,5.0,7.0,40,-99.99,,,-99.99,,2013-03-19 22:43:00,
2013-03-19 18:54:00,84.0,57.0,29.93,South,173,5.0,8.0,40,-99.99,,,-99.99,,2013-03-19 22:54:00,
2013-03-19 19:03:00,83.0,56.0,29.92,SSE,157,4.0,8.0,39,-99.99,,,-99.99,,2013-03-19 23:03:00,
2013-03-19 19:12:00,83.0,56.0,29.92,SSE,157,4.0,8.0,39,-99.99,,,-99.99,,2013-03-19 23:12:00,
2013-03-19 19:22:00,82.0,56.0,29.93,SE,144,2.0,4.0,40,-99.99,,,-99.99,,2013-03-19 23:22:00,
2013-03-19 19:33:00,82.0,56.0,29.93,SE,144,2.0,4.0,40,-99.99,,,-99.99,,2013-03-19 23:33:00,
2013-03-19 19:43:00,80.0,57.0,29.93,ESE,120,2.0,3.0,44,-99.99,,,-99.99,,2013-03-19 23:43:00,
2013-03-19 19:53:00,79.0,57.0,29.94,ESE,107,3.0,4.0,47,-99.99,,,-99.99,,2013-03-19 23:53:00,
2013-03-19 20:03:00,78.0,58.0,29.94,ESE,120,2.0,4.0,50,-99.99,,,-99.99,,2013-03-20 00:03:00,
2013-03-19 20:13:00,78.0,58.0,29.94,ESE,120,2.0,4.0,50,-99.99,,,-99.99,,2013-03-20 00:13:00,
2013-03-19 20:22:00,76.0,59.0,29.94,SE,126,4.0,5.0,56,-99.99,,,-99.99,,2013-03-20 00:22:00,
2013-03-19 20:33:00,75.0,61.0,29.95,South,177,3.0,4.0,61,-99.99,,,-99.99,,2013-03-20 00:33:00,
2013-03-19 20:42:00,75.0,61.0,29.95,South,177,3.0,4.0,61,-99.99,,,-99.99,,2013-03-20 00:42:00,
2013-03-19 20:52:00,73.0,62.0,29.96,WNW,301,7.0,11.0,69,-99.99,,,-99.99,,2013-03-20 00:52:00,
2013-03-19 21:03:00,72.0,62.0,29.96,SSW,201,4.0,6.0,69,-99.99,,,-99.99,,2013-03-20 01:03:00,
2013-03-19 21:12:00,72.0,62.0,29.96,SSW,201,4.0,6.0,69,-99.99,,,-99.99,,2013-03-20 01:12:00,
2013-03-19 21:23:00,72.0,62.0,29.95,East,94,3.0,5.0,69,-99.99,,,-99.99,,2013-03-20 01:23:00,
2013-03-19 21:32:00,71.0,61.0,29.95,NE,46,4.0,5.0,72,-99.99,,,-99.99,,2013-03-20 01:32:00,
2013-03-19 21:43:00,71.0,61.0,29.95,NE,46,4.0,5.0,72,-99.99,,,-99.99,,2013-03-20 01:43:00,
2013-03-19 21:53:00,70.0,61.0,29.95,NE,40,3.0,5.0,71,-99.99,,,-99.99,,2013-03-20 01:53:00,
2013-03-19 22:02:00,69.0,61.0,29.95,SSW,211,2.0,4.0,75,-99.99,,,-99.99,,2013-03-20 02:02:00,
2013-03-19 22:12:00,69.0,61.0,29.95,SSW,211,2.0,4.0,75,-99.99,,,-99.99,,2013-03-20 02:12:00,
2013-03-19 22:23:00,69.0,62.0,29.97,NW,306,6.0,10.0,77,-99.99,,,-99.99,,2013-03-20 02:23:00,
2013-03-19 22:32:00,69.0,62.0,29.97,NW,306,6.0,10.0,77,-99.99,,,-99.99,,2013-03-20 02:32:00,
2013-03-19 22:43:00,70.0,61.0,29.97,SSE,161,3.0,6.0,74,-99.99,,,-99.99,,2013-03-20 02:43:00,
2013-03-19 22:53:00,69.0,61.0,29.97,WNW,287,2.0,3.0,74,-99.99,,,-99.99,,2013-03-20 02:53:00,
2013-03-19 23:02:00,69.0,61.0,29.97,East,91,4.0,6.0,73,-99.99,,,-99.99,,2013-03-20 03:02:00,
2013-03-19 23:12:00,69.0,61.0,29.97,East,91,4.0,6.0,73,-99.99,,,-99.99,,2013-03-20 03:12:00,
2013-03-19 23:22:00,69.0,61.0,29.98,NE,45,4.0,5.0,74,-99.99,,,-99.99,,2013-03-20 03:22:00,
2013-03-19 23:34:00,69.0,61.0,29.98,NE,45,4.0,5.0,74,-99.99,,,-99.99,,2013-03-20 03:34:00,
2013-03-19 23:43:00,68.0,61.0,29.98,NNE,20,4.0,5.0,76,-99.99,,,-99.99,,2013-03-20 03:43:00,
2013-03-19 23:53:00,68.0,62.0,29.97,ENE,77,4.0,7.0,80,-99.99,,,-99.99,,2013-03-20 03:53:00,